createdAt,value
2018-07-16T00:01:00.828Z,67.75
2018-07-16T00:03:30.505Z,68.29
2018-07-16T00:06:00.325Z,68.41
2018-07-16T00:08:30.568Z,69.57
2018-07-16T00:11:01.183Z,69.55
2018-07-16T00:13:30.835Z,71.24
2018-07-16T00:16:01.269Z,70.54
2018-07-16T00:18:30.863Z,70.75
2018-07-16T00:21:00.684Z,71.20
2018-07-16T00:23:30.512Z,71.69
2018-07-16T00:26:00.310Z,72.38
2018-07-16T00:28:29.996Z,72.58
2018-07-16T00:30:59.635Z,72.97
2018-07-16T00:33:29.262Z,73.30
2018-07-16T00:35:58.945Z,73.69
2018-07-16T00:38:28.555Z,72.05
2018-07-16T00:40:58.215Z,73.05
2018-07-16T00:43:27.826Z,72.97
2018-07-16T00:45:57.474Z,73.82
2018-07-16T00:48:27.137Z,72.87
2018-07-16T00:50:56.838Z,73.61
2018-07-16T00:53:26.600Z,73.30
2018-07-16T00:55:56.232Z,75.04
2018-07-16T00:58:26.003Z,75.48
2018-07-16T01:00:56.405Z,75.53
2018-07-16T01:03:26.096Z,75.94
2018-07-16T01:05:55.781Z,76.36
2018-07-16T01:08:25.435Z,76.79
2018-07-16T01:10:54.999Z,77.04
2018-07-16T01:13:24.804Z,76.64
2018-07-16T01:15:54.354Z,76.00
2018-07-16T01:18:23.940Z,76.50
2018-07-16T01:20:53.633Z,76.04
2018-07-16T01:23:23.243Z,77.02
2018-07-16T01:25:53.600Z,77.50
2018-07-16T01:28:23.924Z,77.47
2018-07-16T01:30:53.639Z,76.57
2018-07-16T01:33:23.351Z,78.17
2018-07-16T01:35:53.203Z,78.66
2018-07-16T01:38:23.025Z,78.00
2018-07-16T01:40:52.709Z,79.42
2018-07-16T01:43:22.969Z,78.57
2018-07-16T01:45:52.676Z,79.32
2018-07-16T01:48:22.291Z,79.36
2018-07-16T01:50:52.048Z,79.36
2018-07-16T01:53:21.803Z,79.77
2018-07-16T01:55:57.656Z,79.38
2018-07-16T01:58:27.264Z,80.04
2018-07-16T02:01:00.468Z,80.00
2018-07-16T02:03:34.933Z,80.43
2018-07-16T02:06:04.821Z,80.06
2018-07-16T02:08:34.568Z,79.86
2018-07-16T02:11:04.735Z,80.66
2018-07-16T02:13:34.446Z,80.24
2018-07-16T02:16:04.078Z,81.01
2018-07-16T02:18:33.724Z,81.16
2018-07-16T02:21:03.379Z,80.90
2018-07-16T02:23:33.072Z,81.49
2018-07-16T02:26:02.634Z,80.91
2018-07-16T02:28:32.256Z,81.43
2018-07-16T02:31:01.854Z,81.58
2018-07-16T02:33:31.593Z,81.13
2018-07-16T02:36:01.208Z,81.70
2018-07-16T02:38:30.739Z,81.55
2018-07-16T02:41:07.133Z,82.63
2018-07-16T02:43:36.757Z,82.97
2018-07-16T02:46:06.596Z,82.63
2018-07-16T02:48:36.200Z,83.25
2018-07-16T02:51:05.786Z,82.23
2018-07-16T02:53:35.626Z,82.70
2018-07-16T02:56:05.215Z,83.33
2018-07-16T02:58:34.997Z,83.25
2018-07-16T03:01:04.706Z,83.16
2018-07-16T03:03:34.280Z,83.74
2018-07-16T03:06:03.871Z,84.21
2018-07-16T03:08:37.788Z,84.14
2018-07-16T03:11:07.539Z,84.08
2018-07-16T03:13:37.109Z,84.44
2018-07-16T03:16:06.896Z,83.74
2018-07-16T03:18:36.453Z,84.39
2018-07-16T03:21:06.230Z,83.56
2018-07-16T03:23:35.842Z,84.49
2018-07-16T03:26:05.461Z,84.33
2018-07-16T03:28:35.098Z,83.35
2018-07-16T03:31:04.761Z,83.90
2018-07-16T03:33:34.392Z,83.84
2018-07-16T03:36:03.957Z,84.07
2018-07-16T03:38:33.501Z,84.26
2018-07-16T03:41:03.115Z,83.81
2018-07-16T03:43:33.399Z,83.64
2018-07-16T03:46:03.069Z,82.71
2018-07-16T03:48:32.714Z,83.00
2018-07-16T03:51:02.353Z,82.61
2018-07-16T03:53:31.914Z,82.27
2018-07-16T03:56:01.734Z,81.64
2018-07-16T03:58:31.512Z,81.72
2018-07-16T04:01:01.352Z,80.39
2018-07-16T04:03:30.976Z,80.89
2018-07-16T04:06:00.710Z,79.47
2018-07-16T04:08:31.408Z,74.80
2018-07-16T04:11:01.393Z,67.46
2018-07-16T04:13:30.742Z,55.50
2018-07-16T04:16:00.521Z,51.31
2018-07-16T04:18:30.913Z,49.43
2018-07-16T04:21:00.748Z,45.52
2018-07-16T04:23:30.363Z,47.00
2018-07-16T04:26:00.137Z,44.69
2018-07-16T04:28:29.824Z,42.18
2018-07-16T04:30:59.741Z,40.56
2018-07-16T04:33:29.375Z,37.48
2018-07-16T04:35:59.200Z,38.24
2018-07-16T04:38:28.763Z,36.26
2018-07-16T04:40:58.584Z,36.48
2018-07-16T04:43:28.212Z,35.15
2018-07-16T04:45:57.952Z,31.85
2018-07-16T04:48:27.598Z,32.04
2018-07-16T04:50:57.234Z,34.95
2018-07-16T04:53:27.146Z,36.35
2018-07-16T04:55:57.494Z,33.32
2018-07-16T04:58:27.373Z,33.54
2018-07-16T05:00:57.033Z,35.96
2018-07-16T05:03:26.754Z,31.68
2018-07-16T05:05:56.401Z,30.50
2018-07-16T05:08:26.092Z,30.60
2018-07-16T05:10:55.693Z,35.84
2018-07-16T05:13:25.421Z,35.49
2018-07-16T05:15:54.996Z,35.80
2018-07-16T05:18:25.153Z,34.54
2018-07-16T05:20:54.691Z,34.60
2018-07-16T05:23:24.391Z,28.12
2018-07-16T05:25:54.008Z,27.52
2018-07-16T05:28:23.641Z,26.23
2018-07-16T05:30:53.217Z,31.34
2018-07-16T05:33:22.856Z,28.94
2018-07-16T05:35:52.455Z,24.77
2018-07-16T05:38:22.115Z,30.09
2018-07-16T05:40:51.747Z,32.78
2018-07-16T05:43:22.142Z,34.63
2018-07-16T05:45:51.742Z,27.93
2018-07-16T05:48:21.590Z,32.47
2018-07-16T05:50:51.209Z,29.16
2018-07-16T05:53:20.963Z,27.69
2018-07-16T05:55:50.304Z,23.41
2018-07-16T05:58:20.020Z,24.14
2018-07-16T06:00:49.553Z,26.74
2018-07-16T06:03:19.219Z,25.56
2018-07-16T06:05:48.772Z,27.96
2018-07-16T06:08:18.471Z,24.01
2018-07-16T06:10:48.107Z,23.62
2018-07-16T06:13:17.767Z,25.52
2018-07-16T06:15:47.397Z,23.66
2018-07-16T06:18:17.152Z,26.61
2018-07-16T06:20:46.766Z,25.53
2018-07-16T06:23:16.517Z,25.53
2018-07-16T06:25:46.865Z,24.76
2018-07-16T06:28:16.631Z,26.33
2018-07-16T06:30:46.240Z,26.01
2018-07-16T06:33:15.878Z,26.83
2018-07-16T06:35:45.511Z,24.27
2018-07-16T06:38:15.511Z,23.77
2018-07-16T06:40:45.543Z,24.13
2018-07-16T06:43:15.123Z,22.82
2018-07-16T06:45:44.823Z,24.32
2018-07-16T06:48:14.536Z,27.63
2018-07-16T06:50:44.239Z,27.44
2018-07-16T06:53:13.990Z,27.49
2018-07-16T06:55:44.414Z,29.04
2018-07-16T06:58:14.342Z,24.85
2018-07-16T07:00:44.003Z,25.85
2018-07-16T07:03:13.777Z,25.95
2018-07-16T07:05:43.544Z,25.90
2018-07-16T07:08:13.302Z,31.07
2018-07-16T07:10:43.091Z,27.65
2018-07-16T07:13:12.800Z,25.93
2018-07-16T07:15:42.427Z,26.61
2018-07-16T07:18:11.804Z,25.86
2018-07-16T07:20:41.705Z,25.25
2018-07-16T07:23:11.342Z,25.47
2018-07-16T07:25:41.090Z,26.02
2018-07-16T07:28:10.853Z,26.90
2018-07-16T07:30:40.566Z,27.81
2018-07-16T07:33:10.369Z,29.13
2018-07-16T07:35:40.236Z,27.45
2018-07-16T07:38:09.800Z,29.36
2018-07-16T07:40:39.550Z,29.74
2018-07-16T07:43:09.301Z,29.07
2018-07-16T07:45:38.913Z,30.81
2018-07-16T07:48:09.452Z,28.41
2018-07-16T07:50:39.949Z,28.81
2018-07-16T07:53:11.002Z,29.30
2018-07-16T07:55:40.715Z,29.71
2018-07-16T07:58:10.351Z,32.29
2018-07-16T08:00:39.970Z,29.12
2018-07-16T08:03:09.552Z,31.35
2018-07-16T08:05:39.430Z,32.71
2018-07-16T08:08:09.111Z,33.56
2018-07-16T08:10:38.880Z,30.21
2018-07-16T08:13:08.522Z,30.33
2018-07-16T08:15:38.117Z,31.34
2018-07-16T08:18:07.796Z,29.24
2018-07-16T08:20:37.457Z,29.43
2018-07-16T08:23:07.456Z,27.79
2018-07-16T08:25:37.996Z,29.20
2018-07-16T08:28:07.712Z,28.37
2018-07-16T08:30:37.293Z,30.68
2018-07-16T08:33:07.850Z,30.27
2018-07-16T08:35:37.549Z,29.75
2018-07-16T08:38:07.631Z,29.91
2018-07-16T08:40:37.267Z,29.19
2018-07-16T08:43:07.302Z,28.94
2018-07-16T08:45:36.953Z,29.88
2018-07-16T08:48:06.581Z,27.84
2018-07-16T08:50:36.432Z,27.32
2018-07-16T08:53:06.401Z,29.32
2018-07-16T08:55:36.005Z,27.49
2018-07-16T08:58:05.839Z,27.50
2018-07-16T09:00:35.679Z,28.59
2018-07-16T09:03:05.524Z,30.09
2018-07-16T09:05:35.176Z,29.39
2018-07-16T09:08:04.829Z,28.19
2018-07-16T09:10:34.465Z,28.37
2018-07-16T09:13:04.238Z,30.54
2018-07-16T09:15:33.818Z,29.11
2018-07-16T09:18:03.449Z,27.70
2018-07-16T09:20:33.126Z,27.93
2018-07-16T09:23:02.802Z,29.12
2018-07-16T09:25:32.502Z,27.99
2018-07-16T09:28:02.017Z,28.08
2018-07-16T09:30:31.656Z,28.58
2018-07-16T09:33:01.358Z,29.89
2018-07-16T09:35:30.975Z,27.19
2018-07-16T09:38:00.635Z,29.91
2018-07-16T09:40:30.312Z,30.86
2018-07-16T09:43:00.066Z,30.69
2018-07-16T09:45:29.857Z,29.15
2018-07-16T09:47:59.597Z,29.64
2018-07-16T09:50:29.397Z,27.73
2018-07-16T09:52:58.964Z,29.94
2018-07-16T09:55:29.080Z,27.82
2018-07-16T09:57:59.479Z,29.21
2018-07-16T10:00:34.548Z,30.11
2018-07-16T10:03:04.179Z,29.84
2018-07-16T10:05:34.673Z,31.42
2018-07-16T10:08:04.343Z,31.07
2018-07-16T10:10:38.124Z,29.98
2018-07-16T10:13:08.085Z,29.54
2018-07-16T10:15:38.341Z,30.34
2018-07-16T10:18:08.125Z,29.88
2018-07-16T10:20:38.070Z,28.22
2018-07-16T10:23:07.635Z,28.91
2018-07-16T10:25:37.373Z,30.28
2018-07-16T10:28:07.187Z,28.87
2018-07-16T10:30:41.303Z,28.95
2018-07-16T10:33:11.205Z,29.22
2018-07-16T10:35:40.942Z,29.89
2018-07-16T10:38:10.677Z,32.67
2018-07-16T10:40:40.376Z,29.03
2018-07-16T10:43:10.017Z,29.40
2018-07-16T10:45:39.383Z,29.43
2018-07-16T10:48:09.054Z,30.47
2018-07-16T10:50:38.747Z,30.50
2018-07-16T10:53:08.393Z,31.21
2018-07-16T10:55:38.738Z,29.26
2018-07-16T10:58:08.766Z,30.47
2018-07-16T11:00:38.526Z,29.29
2018-07-16T11:03:08.547Z,30.79
2018-07-16T11:05:38.366Z,29.13
2018-07-16T11:08:07.985Z,29.97
2018-07-16T11:10:37.611Z,32.47
2018-07-16T11:13:07.371Z,30.54
2018-07-16T11:15:37.036Z,32.53
2018-07-16T11:18:06.693Z,31.62
2018-07-16T11:20:36.324Z,32.05
2018-07-16T11:23:06.066Z,32.61
2018-07-16T11:25:35.714Z,33.30
2018-07-16T11:28:05.419Z,32.12
2018-07-16T11:30:35.103Z,32.24
2018-07-16T11:33:05.031Z,31.44
2018-07-16T11:35:34.691Z,32.12
2018-07-16T11:38:04.447Z,32.16
2018-07-16T11:40:34.298Z,31.92
2018-07-16T11:43:03.839Z,31.81
2018-07-16T11:45:33.449Z,32.08
2018-07-16T11:48:03.013Z,31.68
2018-07-16T11:50:33.330Z,32.42
2018-07-16T11:53:03.336Z,32.73
2018-07-16T11:55:33.180Z,32.42
2018-07-16T11:58:03.203Z,31.95
2018-07-16T12:00:32.961Z,31.44
2018-07-16T12:03:02.639Z,32.15
2018-07-16T12:05:32.404Z,32.03
2018-07-16T12:08:02.406Z,31.67
2018-07-16T12:10:32.066Z,32.12
2018-07-16T12:13:02.210Z,31.50
2018-07-16T12:15:31.984Z,31.37
2018-07-16T12:18:02.619Z,31.27
2018-07-16T12:20:32.284Z,31.27
2018-07-16T12:23:02.105Z,31.30
2018-07-16T12:25:31.753Z,30.79
2018-07-16T12:28:01.897Z,30.13
2018-07-16T12:30:31.620Z,30.96
2018-07-16T12:33:01.475Z,30.53
2018-07-16T12:35:31.158Z,30.82
2018-07-16T12:38:01.265Z,30.48
2018-07-16T12:40:30.945Z,31.37
2018-07-16T12:43:01.077Z,31.29
2018-07-16T12:45:30.791Z,30.69
2018-07-16T12:48:00.605Z,30.34
2018-07-16T12:50:30.391Z,30.35
2018-07-16T12:53:00.056Z,30.38
2018-07-16T12:55:29.808Z,29.48
2018-07-16T12:57:59.484Z,29.98
2018-07-16T13:00:29.327Z,30.44
2018-07-16T13:03:01.131Z,29.46
2018-07-16T13:05:30.893Z,30.61
2018-07-16T13:08:01.277Z,29.98
2018-07-16T13:10:30.955Z,29.72
2018-07-16T13:13:00.945Z,30.56
2018-07-16T13:15:30.639Z,30.09
2018-07-16T13:18:00.339Z,30.23
2018-07-16T13:20:29.989Z,30.20
2018-07-16T13:22:59.639Z,30.13
2018-07-16T13:25:29.416Z,29.53
2018-07-16T13:27:58.825Z,30.52
2018-07-16T13:30:28.651Z,30.10
2018-07-16T13:32:58.409Z,30.86
2018-07-16T13:35:28.177Z,29.79
2018-07-16T13:37:57.791Z,29.52
2018-07-16T13:40:27.420Z,29.50
2018-07-16T13:42:57.186Z,30.73
2018-07-16T13:45:26.941Z,30.07
2018-07-16T13:47:56.579Z,30.16
2018-07-16T13:50:26.272Z,30.12
2018-07-16T13:52:55.993Z,30.84
2018-07-16T13:55:25.584Z,29.94
2018-07-16T13:57:55.302Z,30.34
2018-07-16T14:00:24.931Z,30.64
2018-07-16T14:02:54.537Z,29.67
2018-07-16T14:05:24.249Z,29.20
2018-07-16T14:07:53.896Z,29.61
2018-07-16T14:10:23.570Z,29.80
2018-07-16T14:12:53.288Z,29.38
2018-07-16T14:15:22.852Z,30.66
2018-07-16T14:17:52.606Z,30.27
2018-07-16T14:20:22.462Z,29.37
2018-07-16T14:22:52.083Z,31.03
2018-07-16T14:25:21.735Z,30.19
2018-07-16T14:27:51.535Z,29.17
2018-07-16T14:30:21.512Z,30.14
2018-07-16T14:32:52.273Z,29.47
2018-07-16T14:35:22.138Z,29.66
2018-07-16T14:37:51.828Z,29.93
2018-07-16T14:40:21.136Z,29.84
2018-07-16T14:45:15.888Z,29.73
2018-07-16T14:47:45.575Z,29.35
2018-07-16T14:50:15.301Z,29.55
2018-07-16T14:52:45.046Z,29.45
2018-07-16T14:55:15.134Z,29.93
2018-07-16T14:57:44.868Z,29.21
2018-07-16T15:00:14.756Z,29.48
2018-07-16T15:02:44.409Z,29.15
2018-07-16T15:05:14.380Z,29.49
2018-07-16T15:07:44.046Z,29.26
2018-07-16T15:10:13.912Z,29.79
2018-07-16T15:12:43.535Z,29.52
2018-07-16T15:15:13.232Z,30.09
2018-07-16T15:17:43.230Z,30.54
2018-07-16T15:20:13.052Z,30.18
2018-07-16T15:22:43.059Z,29.25
2018-07-16T15:25:12.684Z,30.02
2018-07-16T15:27:42.631Z,29.25
2018-07-16T15:30:12.440Z,30.23
2018-07-16T15:32:42.093Z,29.59
2018-07-16T15:35:11.835Z,29.39
2018-07-16T15:37:41.853Z,29.73
2018-07-16T15:40:11.543Z,30.31
2018-07-16T15:42:41.075Z,30.00
2018-07-16T15:45:10.705Z,31.08
2018-07-16T15:47:43.310Z,30.66
2018-07-16T15:50:12.973Z,29.77
2018-07-16T15:52:42.604Z,29.90
2018-07-16T15:55:12.528Z,30.35
2018-07-16T15:57:42.160Z,30.04
2018-07-16T16:00:11.508Z,30.53
2018-07-16T16:02:41.211Z,29.75
2018-07-16T16:05:10.822Z,30.59
2018-07-16T16:07:40.527Z,30.98
2018-07-16T16:10:10.186Z,30.62
2018-07-16T16:12:39.876Z,30.32
2018-07-16T16:15:09.561Z,29.94
2018-07-16T16:17:39.274Z,30.53
2018-07-16T16:20:09.597Z,30.43
2018-07-16T16:22:39.318Z,30.27
2018-07-16T16:25:09.171Z,30.82
2018-07-16T16:27:38.989Z,31.45
2018-07-16T16:30:08.952Z,30.89
2018-07-16T16:32:38.719Z,31.22
2018-07-16T16:35:08.712Z,31.29
2018-07-16T16:37:38.464Z,31.19
2018-07-16T16:40:08.227Z,31.26
2018-07-16T16:42:37.899Z,30.86
2018-07-16T16:45:07.601Z,31.48
2018-07-16T16:47:37.438Z,31.58
2018-07-16T16:50:07.231Z,31.89
2018-07-16T16:52:36.927Z,31.48
2018-07-16T16:55:06.686Z,30.64
2018-07-16T16:57:36.458Z,31.40
2018-07-16T17:00:06.968Z,31.47
2018-07-16T17:02:36.648Z,31.86
2018-07-16T17:05:06.502Z,31.86
2018-07-16T17:07:36.183Z,31.48
2018-07-16T17:10:05.866Z,31.56
2018-07-16T17:12:35.483Z,32.08
2018-07-16T17:15:05.156Z,32.27
2018-07-16T17:17:34.858Z,31.66
2018-07-16T17:20:04.874Z,31.28
2018-07-16T17:22:34.544Z,31.77
2018-07-16T17:25:04.336Z,31.90
2018-07-16T17:27:34.287Z,31.77
2018-07-16T17:30:04.050Z,31.77
2018-07-16T17:32:34.214Z,31.50
2018-07-16T17:35:03.846Z,32.38
2018-07-16T17:37:33.625Z,32.79
2018-07-16T17:40:03.382Z,32.91
2018-07-16T17:42:33.041Z,31.99
2018-07-16T17:45:02.782Z,32.27
2018-07-16T17:47:32.411Z,32.11
2018-07-16T17:50:02.216Z,32.16
2018-07-16T17:52:31.913Z,32.71
2018-07-16T17:55:01.584Z,32.87
2018-07-16T17:57:31.314Z,33.26
2018-07-16T18:00:01.014Z,33.23
2018-07-16T18:02:30.819Z,32.88
2018-07-16T18:05:00.439Z,33.62
2018-07-16T18:07:30.392Z,33.85
2018-07-16T18:10:00.094Z,33.57
2018-07-16T18:12:32.729Z,32.95
2018-07-16T18:15:02.453Z,33.03
2018-07-16T18:17:32.102Z,33.85
2018-07-16T18:20:01.878Z,34.07
2018-07-16T18:22:31.792Z,33.09
2018-07-16T18:25:01.472Z,33.24
2018-07-16T18:27:31.591Z,33.54
2018-07-16T18:30:01.638Z,34.03
2018-07-16T18:32:31.918Z,34.32
2018-07-16T18:35:01.626Z,34.53
2018-07-16T18:37:31.413Z,33.89
2018-07-16T18:40:01.926Z,34.10
2018-07-16T18:42:32.042Z,34.17
2018-07-16T18:45:01.775Z,35.37
2018-07-16T18:47:31.471Z,34.58
2018-07-16T18:50:01.113Z,35.46
2018-07-16T18:52:31.074Z,35.90
2018-07-16T18:55:00.692Z,35.37
2018-07-16T18:57:30.857Z,35.72
2018-07-16T19:00:00.186Z,35.97
2018-07-16T19:02:29.906Z,36.59
2018-07-16T19:04:59.913Z,36.46
2018-07-16T19:07:29.664Z,37.27
2018-07-16T19:09:59.568Z,36.75
2018-07-16T19:12:29.979Z,36.92
2018-07-16T19:14:59.716Z,37.29
2018-07-16T19:17:29.558Z,38.20
2018-07-16T19:19:59.399Z,38.19
2018-07-16T19:22:35.722Z,38.04
2018-07-16T19:25:05.584Z,38.83
2018-07-16T19:27:35.586Z,39.15
2018-07-16T19:30:06.151Z,38.84
2018-07-16T19:32:36.184Z,39.73
2018-07-16T19:35:06.037Z,39.13
2018-07-16T19:37:36.877Z,40.66
2018-07-16T19:40:08.698Z,40.12
2018-07-16T19:42:39.244Z,40.29
2018-07-16T19:45:09.078Z,39.92
2018-07-16T19:47:39.236Z,39.73
2018-07-16T19:50:09.135Z,40.05
2018-07-16T19:52:39.166Z,40.22
2018-07-16T19:55:08.945Z,40.29
2018-07-16T19:57:39.046Z,40.94
2018-07-16T20:00:09.269Z,40.91
2018-07-16T20:02:40.092Z,41.22
2018-07-16T20:05:09.852Z,41.06
2018-07-16T20:07:40.100Z,40.45
2018-07-16T20:10:09.918Z,40.75
2018-07-16T20:12:40.229Z,41.41
2018-07-16T20:15:10.965Z,41.20
2018-07-16T20:17:40.793Z,41.22
2018-07-16T20:20:10.558Z,41.53
2018-07-16T20:22:41.168Z,41.84
2018-07-16T20:25:10.919Z,42.72
2018-07-16T20:27:41.458Z,41.91
2018-07-16T20:30:11.885Z,42.30
2018-07-16T20:32:41.948Z,43.01
2018-07-16T20:35:11.806Z,43.43
2018-07-16T20:37:42.610Z,44.34
2018-07-16T20:40:12.485Z,44.22
2018-07-16T20:42:42.698Z,44.15
2018-07-16T20:45:12.733Z,44.50
2018-07-16T20:47:43.044Z,44.59
2018-07-16T20:50:13.505Z,45.08
2018-07-16T20:52:44.266Z,44.86
2018-07-16T20:55:14.522Z,45.69
2018-07-16T20:57:44.860Z,45.69
2018-07-16T21:00:14.612Z,46.25
2018-07-16T21:02:44.559Z,47.06
2018-07-16T21:05:14.406Z,47.30
2018-07-16T21:07:44.634Z,46.95
2018-07-16T21:10:14.570Z,48.26
2018-07-16T21:12:44.938Z,48.74
2018-07-16T21:15:15.383Z,49.96
2018-07-16T21:17:45.402Z,50.41
2018-07-16T21:20:15.289Z,50.18
2018-07-16T21:22:45.515Z,51.05
2018-07-16T21:25:15.394Z,51.37
2018-07-16T21:27:46.604Z,51.48
2018-07-16T21:30:16.507Z,51.52
2018-07-16T21:32:46.508Z,52.15
2018-07-16T21:35:16.909Z,51.21
2018-07-16T21:37:47.185Z,52.68
2018-07-16T21:40:17.258Z,52.29
2018-07-16T21:42:47.262Z,53.07
2018-07-16T21:45:17.143Z,52.62
2018-07-16T21:47:47.343Z,52.80
2018-07-16T21:50:18.023Z,54.02
2018-07-16T21:52:48.534Z,53.06
2018-07-16T21:55:19.372Z,54.23
2018-07-16T21:57:49.509Z,54.12
2018-07-16T22:00:28.980Z,54.30
2018-07-16T22:02:59.797Z,54.16
2018-07-16T22:05:30.048Z,55.51
2018-07-16T22:08:00.491Z,54.74
2018-07-16T22:10:30.328Z,55.24
2018-07-16T22:13:00.782Z,54.51
2018-07-16T22:15:30.755Z,56.10
2018-07-16T22:18:00.398Z,56.43
2018-07-16T22:20:30.138Z,56.06
2018-07-16T22:22:59.890Z,56.72
2018-07-16T22:25:29.627Z,56.85
2018-07-16T22:27:59.288Z,56.72
2018-07-16T22:30:29.033Z,57.60
2018-07-16T22:32:59.103Z,57.61
2018-07-16T22:35:28.919Z,57.07
2018-07-16T22:37:58.625Z,56.97
2018-07-16T22:40:28.691Z,57.60
2018-07-16T22:42:58.449Z,57.21
2018-07-16T22:45:29.138Z,56.88
2018-07-16T22:47:58.774Z,57.84
2018-07-16T22:50:28.592Z,58.63
2018-07-16T22:52:58.440Z,58.14
2018-07-16T22:55:28.130Z,58.61
2018-07-16T22:57:58.596Z,58.20
2018-07-16T23:00:28.373Z,58.70
2018-07-16T23:02:58.171Z,58.00
2018-07-16T23:05:27.860Z,58.43
2018-07-16T23:07:57.550Z,57.76
2018-07-16T23:10:27.311Z,57.94
2018-07-16T23:12:57.002Z,57.31
2018-07-16T23:15:26.757Z,58.19
2018-07-16T23:17:56.997Z,57.72
2018-07-16T23:20:26.743Z,58.20
2018-07-16T23:22:57.212Z,57.23
2018-07-16T23:25:27.854Z,57.64
2018-07-16T23:27:57.551Z,57.97
2018-07-16T23:30:26.854Z,57.20
2018-07-16T23:32:57.187Z,57.83
2018-07-16T23:35:26.921Z,57.61
2018-07-16T23:37:57.413Z,58.72
2018-07-16T23:40:27.688Z,58.29
2018-07-16T23:42:57.517Z,58.48
2018-07-16T23:45:27.232Z,58.48
2018-07-16T23:47:57.215Z,57.23
2018-07-16T23:50:26.993Z,56.69
2018-07-16T23:52:56.495Z,56.91
2018-07-16T23:55:26.141Z,56.07
2018-07-16T23:57:56.380Z,56.93
